Pagina principale
METAR-TAF:

METAR-TAF

Aeroporti :

Kano, Nigeria

latitudine: 12-03N, longitudine: 008-32E, altezza: 476 m

Osservazione

Il bollettino è stato emesso 2 ore e 12 minuti fa, alle 05:00 UTC
Vento 9 kt da sud-ovest
Temperature 27°C
Umidità 66%
Pressione 1015 hPa
Visibilità 10 km o più
nessuna nube inferiore a 1500 m e nessun cumulonembo

METAR: DNKN 200500Z 23009KT CAVOK 27/20 Q1015 NOSIG

Ora: 08:12 (07:12 UTC)

Previsione

Il bollettino è stato emesso 3 ore e 42 minuti fa, alle 03:30 UTC
Previsione valida dal 20 alle 06 UTC al 21 alle 12 UTC
Vento 12 kt da sud-ovest
Visibilità 10 km o più
nessuna nube inferiore a 1500 m e nessun cumulonembo
Temporaneamente
dal 20 alle 14 UTC al 20 alle 20 UTC
Nuvoloso ad un'altezza di 1200 ft
Poco nuvoloso ad un'altezza di 1900 ft, Cumulonembo.
temporale

TAF: DNKN 200330Z 2006/2112 22012KT CAVOK TEMPO 2014/2020 TS BKN012 FEW019CB

Osservazioni e previsioni meteorologiche di più di 4000 aeroporti (messaggi METAR e TAF).

Le stazioni disponibili sono rappresentate dai dischi gialli e rossi sulla carta.

Puntare il mouse per vedere il nome della stazione.

Clicca sopra per visualizzare le osservazioni e previsioni meteorologiche.

Per cambiare la mappa : fare clic sui pulsanti verdi con una croce nera per ingrandire, il pulsante verde con un trattino per diminuire, o sulla freccia verde per le mappe adiacenti.


METAR-TAF: